createdAt,value
2023-01-06T00:01:34.637Z,11.50
2023-01-06T00:04:03.538Z,11.50
2023-01-06T00:06:32.952Z,11.50
2023-01-06T00:09:04.540Z,11.50
2023-01-06T00:11:33.732Z,11.50
2023-01-06T00:14:02.463Z,11.60
2023-01-06T00:16:30.893Z,11.60
2023-01-06T00:19:00.865Z,11.60
2023-01-06T00:21:30.071Z,11.60
2023-01-06T00:23:58.624Z,11.60
2023-01-06T00:26:28.550Z,11.60
2023-01-06T00:28:57.886Z,11.60
2023-01-06T00:31:26.342Z,11.60
2023-01-06T00:33:56.903Z,11.60
2023-01-06T00:36:26.040Z,11.60
2023-01-06T00:38:54.477Z,11.60
2023-01-06T00:41:40.672Z,11.60
2023-01-06T00:44:10.451Z,11.60
2023-01-06T00:46:38.990Z,11.60
2023-01-06T00:49:08.078Z,11.60
2023-01-06T00:51:37.755Z,11.70
2023-01-06T00:54:06.513Z,11.70
2023-01-06T00:56:38.377Z,11.70
2023-01-06T00:59:07.055Z,11.60
2023-01-06T01:01:37.765Z,11.60
2023-01-06T01:04:06.773Z,11.60
2023-01-06T01:06:36.280Z,11.50
2023-01-06T01:09:06.319Z,11.50
2023-01-06T01:11:52.469Z,11.50
2023-01-06T01:14:22.207Z,11.40
2023-01-06T01:16:52.267Z,11.40
2023-01-06T01:19:21.398Z,11.40
2023-01-06T01:21:50.290Z,11.40
2023-01-06T01:24:19.021Z,11.40
2023-01-06T01:26:47.797Z,11.40
2023-01-06T01:29:17.847Z,11.50
2023-01-06T01:31:47.265Z,11.50
2023-01-06T01:34:18.702Z,11.50
2023-01-06T01:36:48.522Z,11.50
2023-01-06T01:39:19.185Z,11.50
2023-01-06T01:41:48.137Z,11.60
2023-01-06T01:44:54.163Z,11.60
2023-01-06T01:47:28.317Z,11.60
2023-01-06T01:50:02.637Z,11.50
2023-01-06T01:52:31.409Z,11.60
2023-01-06T01:55:00.375Z,11.60
2023-01-06T01:57:36.249Z,11.60
2023-01-06T02:00:07.460Z,11.60
2023-01-06T02:02:36.311Z,11.60
2023-01-06T02:05:08.243Z,11.60
2023-01-06T02:07:36.653Z,11.60
2023-01-06T02:10:12.030Z,11.60
2023-01-06T02:12:41.833Z,11.60
2023-01-06T02:15:18.565Z,11.60
2023-01-06T02:18:03.498Z,11.60
2023-01-06T02:20:57.395Z,11.60
2023-01-06T02:24:14.042Z,11.60
2023-01-06T02:27:36.661Z,11.60
2023-01-06T02:30:32.772Z,11.60
2023-01-06T02:33:11.846Z,11.60
2023-01-06T02:36:18.031Z,11.60
2023-01-06T02:39:02.529Z,11.60
2023-01-06T02:41:35.260Z,11.70
2023-01-06T02:44:11.398Z,11.70
2023-01-06T02:47:02.409Z,11.70
2023-01-06T02:49:42.723Z,11.70
2023-01-06T02:52:19.609Z,11.60
2023-01-06T02:55:00.263Z,11.60
2023-01-06T02:57:37.244Z,11.60
2023-01-06T03:00:12.888Z,11.50
2023-01-06T03:02:43.984Z,11.40
2023-01-06T03:05:17.345Z,11.30
2023-01-06T03:07:47.983Z,11.30
2023-01-06T03:10:20.978Z,11.30
2023-01-06T03:12:53.641Z,11.30
2023-01-06T03:15:22.613Z,11.20
2023-01-06T03:17:51.232Z,11.30
2023-01-06T03:20:21.533Z,11.30
2023-01-06T03:22:50.137Z,11.30
2023-01-06T03:25:19.499Z,11.40
2023-01-06T03:27:47.860Z,11.40
2023-01-06T03:30:17.363Z,11.30
2023-01-06T03:32:55.010Z,11.40
2023-01-06T03:35:48.488Z,11.30
2023-01-06T03:38:27.460Z,11.40
2023-01-06T03:41:01.929Z,11.40
2023-01-06T03:43:37.926Z,11.40
2023-01-06T03:46:18.764Z,11.40
2023-01-06T03:48:56.764Z,11.40
2023-01-06T03:51:48.802Z,11.40
2023-01-06T03:54:29.966Z,11.40
2023-01-06T03:57:02.633Z,11.40
2023-01-06T03:59:36.213Z,11.50
2023-01-06T04:02:06.783Z,11.50
2023-01-06T04:04:35.192Z,11.40
2023-01-06T04:07:04.952Z,11.40
2023-01-06T04:09:33.363Z,11.40
2023-01-06T04:12:19.380Z,11.40
2023-01-06T04:14:47.818Z,11.40
2023-01-06T04:17:16.202Z,11.40
2023-01-06T04:19:44.802Z,11.40
2023-01-06T04:22:14.562Z,11.40
2023-01-06T04:24:42.982Z,11.40
2023-01-06T04:27:11.293Z,11.40
2023-01-06T04:29:40.202Z,11.40
2023-01-06T04:32:08.702Z,11.40
2023-01-06T04:34:37.152Z,11.40
2023-01-06T04:37:05.579Z,11.50
2023-01-06T04:39:35.418Z,11.50
2023-01-06T04:42:03.801Z,11.50
2023-01-06T04:44:32.313Z,11.50
2023-01-06T04:47:00.849Z,11.50
2023-01-06T04:49:29.279Z,11.50
2023-01-06T04:51:57.758Z,11.50
2023-01-06T04:54:26.264Z,11.50
2023-01-06T04:56:56.152Z,11.50
2023-01-06T04:59:24.533Z,11.50
2023-01-06T05:01:53.143Z,11.50
2023-01-06T05:04:21.699Z,11.60
2023-01-06T05:06:50.149Z,11.60
2023-01-06T05:09:18.486Z,11.60
2023-01-06T05:11:46.920Z,11.60
2023-01-06T05:14:20.563Z,11.60
2023-01-06T05:16:50.174Z,11.60
2023-01-06T05:19:18.646Z,11.60
2023-01-06T05:21:47.006Z,11.60
2023-01-06T05:24:15.575Z,11.60
2023-01-06T05:26:44.086Z,11.60
2023-01-06T05:29:17.048Z,11.60
2023-01-06T05:31:46.984Z,11.50
2023-01-06T05:34:15.545Z,11.60
2023-01-06T05:36:44.095Z,11.60
2023-01-06T05:39:12.484Z,11.60
2023-01-06T05:41:40.928Z,11.60
2023-01-06T05:44:09.501Z,11.60
2023-01-06T05:46:37.943Z,11.60
2023-01-06T05:49:07.661Z,11.60
2023-01-06T05:51:36.077Z,11.60
2023-01-06T05:54:09.047Z,11.60
2023-01-06T05:56:37.620Z,11.60
2023-01-06T05:59:06.045Z,11.50
2023-01-06T06:01:34.583Z,11.50
2023-01-06T06:04:03.124Z,11.50
2023-01-06T06:06:32.984Z,11.40
2023-01-06T06:09:01.706Z,11.50
2023-01-06T06:11:30.513Z,11.40
2023-01-06T06:13:59.319Z,11.50
2023-01-06T06:16:29.776Z,11.40
2023-01-06T06:19:00.184Z,11.50
2023-01-06T06:21:31.411Z,11.50
2023-01-06T06:24:02.003Z,11.60
2023-01-06T06:26:30.543Z,11.60
2023-01-06T06:28:58.883Z,11.50
2023-01-06T06:31:29.304Z,11.40
2023-01-06T06:33:59.738Z,11.40
2023-01-06T06:36:29.318Z,11.40
2023-01-06T06:38:57.742Z,11.40
2023-01-06T06:41:27.718Z,11.30
2023-01-06T06:43:56.478Z,11.30
2023-01-06T06:46:25.465Z,11.30
2023-01-06T06:48:53.952Z,11.30
2023-01-06T06:51:23.344Z,11.30
2023-01-06T06:53:52.283Z,11.30
2023-01-06T06:56:22.186Z,11.30
2023-01-06T06:58:52.053Z,11.20
2023-01-06T07:01:22.078Z,11.20
2023-01-06T07:03:50.974Z,11.20
2023-01-06T07:06:21.170Z,11.20
2023-01-06T07:08:50.235Z,11.30
2023-01-06T07:11:18.845Z,11.30
2023-01-06T07:13:47.216Z,11.20
2023-01-06T07:16:17.418Z,11.20
2023-01-06T07:18:45.903Z,11.20
2023-01-06T07:21:14.317Z,11.20
2023-01-06T07:23:42.855Z,11.30
2023-01-06T07:26:11.927Z,11.30
2023-01-06T07:28:40.448Z,11.30
2023-01-06T07:31:09.011Z,11.30
2023-01-06T07:33:39.250Z,11.30
2023-01-06T07:36:08.739Z,11.30
2023-01-06T07:38:37.118Z,11.30
2023-01-06T07:41:05.770Z,11.30
2023-01-06T07:43:34.288Z,11.40
2023-01-06T07:46:02.869Z,11.40
2023-01-06T07:48:31.366Z,11.40
2023-01-06T07:51:01.101Z,11.30
2023-01-06T07:53:29.614Z,11.40
2023-01-06T07:55:58.023Z,11.40
2023-01-06T07:58:26.355Z,11.40
2023-01-06T08:00:58.091Z,11.40
2023-01-06T08:03:26.523Z,11.50
2023-01-06T08:05:54.954Z,11.50
2023-01-06T08:08:24.701Z,11.50
2023-01-06T08:10:53.121Z,11.50
2023-01-06T08:13:21.592Z,11.40
2023-01-06T08:15:52.047Z,11.40
2023-01-06T08:18:20.661Z,11.40
2023-01-06T08:20:49.147Z,11.30
2023-01-06T08:23:17.531Z,11.30
2023-01-06T08:25:47.667Z,11.20
2023-01-06T08:28:16.433Z,11.20
2023-01-06T08:30:45.421Z,11.20
2023-01-06T08:33:14.939Z,11.20
2023-01-06T08:35:46.976Z,11.30
2023-01-06T08:38:15.479Z,11.40
2023-01-06T08:40:44.209Z,11.40
2023-01-06T08:43:14.099Z,11.50
2023-01-06T08:45:42.523Z,11.50
2023-01-06T08:48:11.097Z,11.60
2023-01-06T08:50:39.843Z,11.60
2023-01-06T08:53:08.377Z,11.60
2023-01-06T08:55:39.734Z,11.50
2023-01-06T08:58:08.529Z,11.50
2023-01-06T09:00:39.633Z,11.50
2023-01-06T09:03:08.495Z,11.50
2023-01-06T09:05:37.599Z,11.50
2023-01-06T09:08:06.691Z,11.60
2023-01-06T09:10:38.190Z,11.60
2023-01-06T09:13:06.551Z,11.60
2023-01-06T09:15:34.957Z,11.60
2023-01-06T09:18:04.945Z,11.50
2023-01-06T09:20:33.574Z,11.40
2023-01-06T09:23:02.028Z,11.40
2023-01-06T09:25:30.404Z,11.50
2023-01-06T09:27:59.751Z,11.60
2023-01-06T09:30:28.241Z,11.60
2023-01-06T09:32:56.638Z,11.60
2023-01-06T09:35:26.482Z,11.70
2023-01-06T09:37:54.978Z,11.80
2023-01-06T09:40:28.721Z,11.80
2023-01-06T09:43:07.259Z,11.80
2023-01-06T09:45:41.670Z,11.70
2023-01-06T09:48:18.460Z,11.60
2023-01-06T09:50:49.957Z,11.50
2023-01-06T09:53:22.431Z,11.40
2023-01-06T09:55:53.221Z,11.40
2023-01-06T09:58:25.619Z,11.50
2023-01-06T10:00:56.411Z,11.80
2023-01-06T10:03:27.722Z,12.10
2023-01-06T10:06:09.391Z,12.40
2023-01-06T10:08:46.797Z,12.40
2023-01-06T10:11:18.886Z,12.40
2023-01-06T10:14:01.901Z,12.40
2023-01-06T10:16:38.655Z,12.40
2023-01-06T10:19:21.078Z,12.50
2023-01-06T10:21:56.760Z,12.40
2023-01-06T10:24:46.430Z,12.40
2023-01-06T10:27:28.767Z,12.50
2023-01-06T10:29:58.643Z,12.50
2023-01-06T10:32:32.605Z,12.60
2023-01-06T10:35:04.439Z,12.60
2023-01-06T10:37:39.189Z,12.50
2023-01-06T10:40:19.460Z,12.60
2023-01-06T10:42:57.501Z,12.70
2023-01-06T10:45:29.345Z,12.50
2023-01-06T10:47:58.377Z,12.30
2023-01-06T10:50:29.036Z,12.40
2023-01-06T10:52:57.525Z,12.50
2023-01-06T10:55:47.327Z,12.70
2023-01-06T10:58:25.597Z,13.00
2023-01-06T11:01:01.792Z,13.20
2023-01-06T11:03:33.396Z,13.10
2023-01-06T11:06:11.499Z,13.10
2023-01-06T11:08:40.991Z,13.20
2023-01-06T11:11:27.654Z,13.40
2023-01-06T11:13:58.886Z,13.80
2023-01-06T11:16:29.683Z,14.00
2023-01-06T11:19:01.064Z,14.20
2023-01-06T11:21:45.836Z,14.10
2023-01-06T11:24:20.028Z,14.20
2023-01-06T11:26:54.550Z,14.10
2023-01-06T11:29:28.539Z,14.30
2023-01-06T11:31:58.292Z,14.30
2023-01-06T11:34:30.160Z,14.10
2023-01-06T11:37:00.562Z,13.90
2023-01-06T11:39:33.943Z,13.80
2023-01-06T11:42:11.244Z,13.80
2023-01-06T11:44:41.674Z,13.80
2023-01-06T11:47:15.470Z,13.80
2023-01-06T11:49:48.855Z,13.70
2023-01-06T11:52:25.304Z,13.60
2023-01-06T11:55:00.106Z,13.60
2023-01-06T11:57:36.730Z,13.80
2023-01-06T12:00:27.044Z,13.80
2023-01-06T12:03:07.877Z,13.80
2023-01-06T12:05:44.233Z,13.60
2023-01-06T12:08:26.369Z,13.80
2023-01-06T12:11:00.490Z,13.70
2023-01-06T12:13:29.456Z,13.70
2023-01-06T12:16:05.392Z,13.70
2023-01-06T12:18:37.865Z,13.50
2023-01-06T12:21:07.049Z,13.50
2023-01-06T12:23:41.289Z,13.60
2023-01-06T12:26:24.635Z,13.60
2023-01-06T12:28:56.282Z,13.30
2023-01-06T12:31:30.035Z,13.00
2023-01-06T12:34:03.320Z,12.70
2023-01-06T12:36:40.193Z,12.70
2023-01-06T12:39:13.871Z,12.80
2023-01-06T12:41:49.197Z,13.00
2023-01-06T12:44:34.459Z,13.40
2023-01-06T12:47:11.990Z,13.60
2023-01-06T12:49:45.128Z,13.50
2023-01-06T12:52:17.698Z,13.50
2023-01-06T12:54:53.757Z,13.30
2023-01-06T12:57:39.475Z,13.20
2023-01-06T13:00:42.484Z,13.20
2023-01-06T13:03:50.395Z,13.60
2023-01-06T13:06:40.659Z,13.60
2023-01-06T13:09:32.485Z,13.60
2023-01-06T13:12:34.746Z,13.50
2023-01-06T13:15:08.764Z,13.50
2023-01-06T13:17:45.713Z,13.40
2023-01-06T13:20:21.580Z,13.40
2023-01-06T13:22:57.141Z,13.30
2023-01-06T13:26:06.394Z,13.20
2023-01-06T13:28:46.039Z,13.20
2023-01-06T13:31:50.162Z,13.10
2023-01-06T13:34:34.999Z,13.20
2023-01-06T13:37:22.094Z,13.20
2023-01-06T13:39:55.531Z,13.20
2023-01-06T13:42:36.450Z,13.20
2023-01-06T13:45:10.350Z,13.30
2023-01-06T13:47:39.476Z,13.20
2023-01-06T13:50:09.108Z,13.10
2023-01-06T13:52:37.849Z,13.00
2023-01-06T13:55:23.468Z,13.00
2023-01-06T13:57:51.932Z,13.00
2023-01-06T14:00:27.103Z,13.00
2023-01-06T14:03:28.151Z,13.00
2023-01-06T14:05:58.982Z,13.00
2023-01-06T14:08:34.149Z,13.00
2023-01-06T14:11:18.620Z,13.10
2023-01-06T14:13:51.823Z,13.10
2023-01-06T14:16:23.176Z,13.20
2023-01-06T14:18:53.379Z,13.20
2023-01-06T14:21:28.832Z,13.10
2023-01-06T14:24:08.743Z,13.20
2023-01-06T14:26:53.120Z,13.10
2023-01-06T14:29:45.814Z,13.10
2023-01-06T14:32:52.391Z,13.00
2023-01-06T14:35:27.547Z,12.90
2023-01-06T14:38:01.210Z,12.70
2023-01-06T14:40:32.521Z,12.60
2023-01-06T14:43:03.969Z,12.60
2023-01-06T14:45:39.156Z,12.50
2023-01-06T14:48:14.788Z,12.60
2023-01-06T14:50:47.839Z,12.50
2023-01-06T14:53:23.538Z,12.50
2023-01-06T14:55:52.246Z,12.60
2023-01-06T14:58:31.436Z,12.50
2023-01-06T15:01:00.904Z,12.50
2023-01-06T15:03:32.060Z,12.50
2023-01-06T15:06:12.790Z,12.50
2023-01-06T15:08:41.208Z,12.50
2023-01-06T15:11:25.899Z,12.50
2023-01-06T15:13:54.523Z,12.50
2023-01-06T15:16:36.809Z,12.50
2023-01-06T15:19:10.653Z,12.50
2023-01-06T15:21:40.458Z,12.40
2023-01-06T15:24:20.781Z,12.40
2023-01-06T15:26:50.015Z,12.40
2023-01-06T15:29:22.466Z,12.40
2023-01-06T15:31:53.345Z,12.40
2023-01-06T15:34:26.699Z,12.40
2023-01-06T15:36:57.083Z,12.40
2023-01-06T15:39:28.920Z,12.30
2023-01-06T15:41:59.379Z,12.30
2023-01-06T15:50:32.301Z,12.20
2023-01-06T15:53:04.212Z,12.30
2023-01-06T15:55:35.142Z,12.30
2023-01-06T15:58:07.960Z,12.30
2023-01-06T16:00:42.649Z,12.40
2023-01-06T16:03:18.209Z,12.40
2023-01-06T16:05:51.089Z,12.30
2023-01-06T16:08:26.672Z,12.40
2023-01-06T16:11:10.900Z,12.30
2023-01-06T16:13:41.176Z,12.30
2023-01-06T16:16:26.779Z,12.30
2023-01-06T16:18:55.497Z,12.30
2023-01-06T16:21:30.965Z,12.30
2023-01-06T16:24:02.321Z,12.30
2023-01-06T16:26:33.043Z,12.30
2023-01-06T16:29:03.154Z,12.30
2023-01-06T16:31:34.005Z,12.20
2023-01-06T16:34:25.111Z,12.20
2023-01-06T16:36:57.439Z,12.30
2023-01-06T16:39:26.254Z,12.20
2023-01-06T16:42:39.740Z,12.20
2023-01-06T16:45:18.692Z,12.20
2023-01-06T16:47:47.636Z,12.20
2023-01-06T16:50:19.461Z,12.30
2023-01-06T16:52:55.485Z,12.20
2023-01-06T16:55:24.364Z,12.20
2023-01-06T16:57:53.266Z,12.20
2023-01-06T17:00:24.322Z,12.20
2023-01-06T17:02:53.611Z,12.10
2023-01-06T17:05:25.644Z,12.10
2023-01-06T17:07:59.382Z,12.10
2023-01-06T17:10:28.044Z,12.10
2023-01-06T17:13:21.170Z,12.20
2023-01-06T17:15:53.044Z,12.20
2023-01-06T17:18:27.300Z,12.20
2023-01-06T17:21:01.257Z,12.20
2023-01-06T17:23:38.840Z,12.30
2023-01-06T17:26:14.032Z,12.20
2023-01-06T17:28:43.210Z,12.20
2023-01-06T17:31:16.436Z,12.20
2023-01-06T17:33:46.702Z,12.30
2023-01-06T17:36:24.113Z,12.20
2023-01-06T17:38:53.887Z,12.20
2023-01-06T17:41:22.995Z,12.30
2023-01-06T17:43:51.419Z,12.20
2023-01-06T17:46:30.013Z,12.20
2023-01-06T17:49:04.289Z,12.30
2023-01-06T17:51:32.871Z,12.30
2023-01-06T17:54:20.359Z,12.20
2023-01-06T17:56:49.182Z,12.20
2023-01-06T17:59:19.073Z,12.30
2023-01-06T18:01:47.585Z,12.20
2023-01-06T18:04:16.877Z,12.20
2023-01-06T18:06:52.797Z,12.30
2023-01-06T18:09:25.551Z,12.20
2023-01-06T18:11:57.527Z,12.30
2023-01-06T18:14:32.118Z,12.30
2023-01-06T18:17:09.946Z,12.30
2023-01-06T18:19:39.192Z,12.20
2023-01-06T18:22:17.217Z,12.20
2023-01-06T18:24:48.376Z,12.20
2023-01-06T18:27:23.277Z,12.30
2023-01-06T18:29:52.610Z,12.30
2023-01-06T18:32:26.474Z,12.30
2023-01-06T18:34:56.597Z,12.20
2023-01-06T18:37:26.613Z,12.30
2023-01-06T18:39:59.747Z,12.20
2023-01-06T18:42:32.440Z,12.20
2023-01-06T18:45:19.578Z,12.30
2023-01-06T18:47:52.191Z,12.20
2023-01-06T18:50:27.097Z,12.20
2023-01-06T18:52:56.684Z,12.20
2023-01-06T18:55:31.002Z,12.20
2023-01-06T18:58:05.170Z,12.20
2023-01-06T19:00:41.999Z,12.20
2023-01-06T19:03:39.299Z,12.20
2023-01-06T19:06:30.620Z,12.20
2023-01-06T19:08:59.242Z,12.20
2023-01-06T19:11:30.179Z,12.20
2023-01-06T19:14:01.690Z,12.20
2023-01-06T19:16:38.191Z,12.20
2023-01-06T19:19:23.927Z,12.20
2023-01-06T19:21:53.308Z,12.20
2023-01-06T19:24:44.367Z,12.20
2023-01-06T19:27:36.392Z,12.20
2023-01-06T19:30:38.671Z,12.10
2023-01-06T19:33:27.503Z,12.10
2023-01-06T19:36:03.707Z,12.10
2023-01-06T19:38:37.597Z,12.10
2023-01-06T19:41:10.761Z,12.10
2023-01-06T19:43:40.598Z,12.10
2023-01-06T19:46:19.006Z,12.10
2023-01-06T19:48:47.343Z,12.10
2023-01-06T19:51:27.537Z,12.00
2023-01-06T19:53:59.379Z,12.00
2023-01-06T19:56:31.042Z,12.00
2023-01-06T19:59:02.453Z,12.00
2023-01-06T20:01:34.330Z,12.00
2023-01-06T20:04:03.304Z,12.00
2023-01-06T20:06:31.910Z,12.00
2023-01-06T20:09:00.204Z,12.00
2023-01-06T20:11:28.641Z,12.00
2023-01-06T20:13:57.139Z,12.00
2023-01-06T20:16:27.045Z,12.00
2023-01-06T20:18:55.592Z,12.00
2023-01-06T20:21:23.947Z,12.00
2023-01-06T20:23:52.397Z,12.00
2023-01-06T20:26:20.926Z,12.00
2023-01-06T20:28:49.986Z,12.00
2023-01-06T20:31:18.681Z,12.00
2023-01-06T20:33:48.567Z,12.00
2023-01-06T20:36:17.412Z,11.90
2023-01-06T20:38:46.309Z,12.00
2023-01-06T20:41:15.043Z,12.00
2023-01-06T20:43:43.957Z,12.00
2023-01-06T20:46:13.515Z,12.00
2023-01-06T20:48:42.326Z,12.00
2023-01-06T20:51:12.361Z,11.90
2023-01-06T20:53:40.823Z,11.80
2023-01-06T20:56:09.468Z,11.80
2023-01-06T20:58:37.893Z,11.70
2023-01-06T21:01:07.066Z,11.70
2023-01-06T21:03:35.650Z,11.70
2023-01-06T21:06:03.988Z,11.70
2023-01-06T21:08:33.757Z,11.70
2023-01-06T21:11:02.381Z,11.60
2023-01-06T21:13:30.737Z,11.60
2023-01-06T21:15:59.139Z,11.70
2023-01-06T21:18:27.521Z,11.70
2023-01-06T21:20:56.028Z,11.70
2023-01-06T21:23:24.620Z,11.80
2023-01-06T21:25:54.389Z,11.80
2023-01-06T21:28:22.781Z,11.80
2023-01-06T21:30:51.208Z,11.80
2023-01-06T21:33:21.578Z,11.70
2023-01-06T21:35:50.137Z,11.80
2023-01-06T21:38:18.956Z,11.80
2023-01-06T21:40:47.363Z,11.80
2023-01-06T21:43:16.166Z,11.80
2023-01-06T21:45:45.941Z,11.80
2023-01-06T21:48:15.378Z,11.80
2023-01-06T21:50:46.176Z,11.80
2023-01-06T21:53:15.411Z,11.80
2023-01-06T21:55:43.854Z,11.80
2023-01-06T21:58:12.431Z,11.70
2023-01-06T22:00:42.155Z,11.70
2023-01-06T22:03:12.580Z,11.70
2023-01-06T22:05:41.095Z,11.70
2023-01-06T22:08:10.155Z,11.60
2023-01-06T22:10:41.989Z,11.60
2023-01-06T22:13:12.170Z,11.60
2023-01-06T22:15:43.211Z,11.70
2023-01-06T22:18:11.843Z,11.70
2023-01-06T22:20:40.710Z,11.70
2023-01-06T22:23:12.932Z,11.70
2023-01-06T22:25:41.844Z,11.70
2023-01-06T22:28:10.543Z,11.70
2023-01-06T22:30:38.985Z,11.70
2023-01-06T22:33:08.747Z,11.60
2023-01-06T22:35:37.470Z,11.60
2023-01-06T22:38:05.787Z,11.60
2023-01-06T22:40:34.133Z,11.60
2023-01-06T22:43:04.817Z,11.50
2023-01-06T22:45:35.096Z,11.50
2023-01-06T22:48:04.229Z,11.50
2023-01-06T22:50:34.000Z,11.50
2023-01-06T22:53:04.883Z,11.40
2023-01-06T22:55:33.245Z,11.40
2023-01-06T22:58:01.681Z,11.50
2023-01-06T23:00:30.084Z,11.50
2023-01-06T23:02:58.565Z,11.50
2023-01-06T23:05:27.225Z,11.50
2023-01-06T23:07:57.002Z,11.60
2023-01-06T23:10:25.449Z,11.50
2023-01-06T23:12:53.879Z,11.50
2023-01-06T23:15:22.229Z,11.50
2023-01-06T23:17:50.530Z,11.50
2023-01-06T23:20:19.006Z,11.60
2023-01-06T23:22:47.414Z,11.60
2023-01-06T23:25:17.265Z,11.60
2023-01-06T23:27:45.637Z,11.60
2023-01-06T23:30:14.943Z,11.50
2023-01-06T23:32:43.304Z,11.50
2023-01-06T23:35:12.067Z,11.60
2023-01-06T23:37:40.889Z,11.60
2023-01-06T23:40:10.592Z,11.60
2023-01-06T23:42:47.953Z,11.70
2023-01-06T23:45:17.361Z,11.60
2023-01-06T23:47:45.803Z,11.60
2023-01-06T23:50:14.420Z,11.60
2023-01-06T23:52:42.886Z,11.60
2023-01-06T23:55:11.844Z,11.60
2023-01-06T23:57:41.734Z,11.60
